チェンナイ の空港の天気 - METARとTAF

チェンナイ国際空港 ( VOMM / MAA ) - インド チェンナイ
飛行場実況気象(Metar)
観測時間02/20 20:30 IST (02/20 15:00 UTC)
風向・風速東 1m/s
視程6000m
天気現象
なし
気温27℃
湿度79%
気圧1010hPa
METARVOMM 201500Z 10002KT 6000 NSC 27/23 Q1010 NOSIG
過去の天気等 Google飛行場航空写真 Wunderground天気予報

過去48時間のMETAR

飛行場予報(TAF)
発表時間: 2/20 16:30 IST (2/20 11:00 UTC)
予報対象時間: 20日17時 IST ~ 21日23時 IST
風向・風速東 5m/s
視程6,000m
少しの雲 雲底高度 610m
20日23時 IST ~ 21日24時 IST に徐々に
風向・風速静穏
視程5,000m
天気現象煙霧
21日5時 IST ~ 21日8時 IST に一時的に
視程3,000m
天気現象もや
21日10時 IST ~ 21日11時 IST に徐々に
風向・風速南南西 5m/s
視程6,000m
21日14時 IST ~ 21日15時 IST に徐々に
風向・風速東 5m/s
TAF VOMM 201100Z 2012/2118 09010KT 6000 FEW020
BECMG 2018/2019 00000KT 5000 HZ
TEMPO 2100/2103 3000 BR
BECMG 2105/2106 20010KT 6000
BECMG 2109/2110 09010KT